Time;durP1;ratioP1;P1;durP2;ratioP2;P2;SDS_P1;SDS_P2;PMS_P1;PMS_P2;Temp;Humidity;BMP_temperature;BMP_pressure;BME280_temperature;BME280_humidity;BME280_pressure;Samples;Min_cycle;Max_cycle;Signal;HPM_P1;HPM_P2
2022/12/16 00:01:26;;;;;;;6.15;2.92;;;;;;;;;;10373465;28;20033;-61
2022/12/16 00:06:30;;;;;;;5.70;3.03;;;;;;;;;;10364428;28;20444;-60
2022/12/16 00:11:31;;;;;;;4.72;2.85;;;;;;;;;;10362261;28;20037;-60
2022/12/16 00:16:31;;;;;;;5.05;2.88;;;;;;;;;;10364183;28;20029;-60
2022/12/16 00:21:32;;;;;;;4.70;2.90;;;;;;;;;;10362385;28;20030;-60
2022/12/16 00:26:32;;;;;;;2.85;2.22;;;;;;;;;;10365728;28;20623;-60
2022/12/16 00:31:33;;;;;;;5.95;2.70;;;;;;;;;;10354355;28;20386;-60
2022/12/16 00:36:34;;;;;;;7.18;2.85;;;;;;;;;;10356476;28;20440;-61
2022/12/16 00:41:35;;;;;;;4.53;2.80;;;;;;;;;;10364404;28;20529;-60
2022/12/16 00:46:35;;;;;;;3.70;2.35;;;;;;;;;;10359003;28;20136;-59
2022/12/16 00:51:36;;;;;;;6.85;2.60;;;;;;;;;;10366213;28;20044;-59
2022/12/16 00:56:36;;;;;;;9.40;2.65;;;;;;;;;;10369291;28;20034;-59
2022/12/16 01:01:37;;;;;;;3.03;2.22;;;;;;;;;;10368186;28;20329;-58
2022/12/16 01:06:37;;;;;;;4.90;2.80;;;;;;;;;;10372487;28;20025;-60
2022/12/16 01:11:38;;;;;;;6.43;2.75;;;;;;;;;;10366028;28;20041;-59
2022/12/16 01:16:39;;;;;;;4.57;2.80;;;;;;;;;;10370762;28;20026;-60
2022/12/16 01:21:39;;;;;;;5.80;2.60;;;;;;;;;;10370502;28;20030;-59
2022/12/16 01:26:40;;;;;;;3.40;2.30;;;;;;;;;;10372051;28;20084;-59
2022/12/16 01:31:40;;;;;;;6.22;3.80;;;;;;;;;;10371152;28;20034;-60
2022/12/16 01:36:41;;;;;;;4.05;2.22;;;;;;;;;;10369552;28;20470;-60
2022/12/16 01:41:41;;;;;;;2.28;2.08;;;;;;;;;;10368742;28;20029;-59
2022/12/16 01:46:49;;;;;;;2.85;2.33;;;;;;;;;;10359377;28;20029;-59
2022/12/16 01:51:50;;;;;;;5.30;2.40;;;;;;;;;;10371127;28;20088;-59
2022/12/16 01:56:56;;;;;;;4.80;2.45;;;;;;;;;;10370512;28;20037;-59
2022/12/16 02:01:58;;;;;;;2.80;2.30;;;;;;;;;;10369308;28;20477;-60
2022/12/16 02:07:00;;;;;;;2.85;2.13;;;;;;;;;;10366526;28;20033;-60
2022/12/16 02:12:06;;;;;;;8.18;2.65;;;;;;;;;;10369368;28;20478;-60
2022/12/16 02:17:40;;;;;;;3.17;2.15;;;;;;;;;;10361696;28;20385;-60
2022/12/16 02:22:59;;;;;;;2.25;2.00;;;;;;;;;;10357976;28;20034;-61
2022/12/16 02:28:23;;;;;;;2.67;1.85;;;;;;;;;;10368513;28;20038;-61
2022/12/16 02:34:05;;;;;;;4.40;2.15;;;;;;;;;;10360979;28;20081;-60
2022/12/16 02:39:16;;;;;;;3.70;2.35;;;;;;;;;;10379056;28;20044;-61
2022/12/16 02:44:18;;;;;;;3.35;2.20;;;;;;;;;;10386973;28;20025;-61
2022/12/16 02:49:22;;;;;;;2.60;2.00;;;;;;;;;;10383589;28;20511;-61
2022/12/16 02:54:23;;;;;;;5.50;2.28;;;;;;;;;;10398939;28;20041;-60
2022/12/16 02:59:27;;;;;;;2.88;2.20;;;;;;;;;;10391712;28;20196;-61
2022/12/16 03:04:45;;;;;;;6.28;2.67;;;;;;;;;;10390099;28;20032;-61
2022/12/16 03:09:47;;;;;;;3.10;2.17;;;;;;;;;;10396656;28;20025;-58
2022/12/16 03:14:52;;;;;;;5.82;2.13;;;;;;;;;;10390202;28;20047;-59
2022/12/16 03:20:04;;;;;;;4.93;1.83;;;;;;;;;;10375399;28;20033;-59
2022/12/16 03:25:06;;;;;;;2.50;2.00;;;;;;;;;;10370191;28;20376;-59
2022/12/16 03:30:18;;;;;;;2.45;1.90;;;;;;;;;;10379558;28;20114;-59
2022/12/16 03:35:46;;;;;;;3.33;1.90;;;;;;;;;;10372955;28;20392;-60
2022/12/16 03:40:48;;;;;;;4.32;1.95;;;;;;;;;;10397716;28;20032;-60
2022/12/16 03:45:53;;;;;;;2.85;1.80;;;;;;;;;;10401247;28;20112;-60
2022/12/16 03:50:54;;;;;;;5.38;1.98;;;;;;;;;;10376158;28;20113;-61
2022/12/16 03:55:55;;;;;;;6.65;2.20;;;;;;;;;;10359413;28;20056;-61
2022/12/16 04:00:55;;;;;;;9.30;2.00;;;;;;;;;;10388932;28;20037;-61
2022/12/16 04:05:56;;;;;;;2.25;2.05;;;;;;;;;;10404648;28;20029;-61
2022/12/16 04:32:17;;;;;;;;;;;;;;;;;;10392582;28;20034;-61
